Time;durP1;ratioP1;P1;durP2;ratioP2;P2;SDS_P1;SDS_P2;PMS_P1;PMS_P2;Temp;Humidity;BMP_temperature;BMP_pressure;BME280_temperature;BME280_humidity;BME280_pressure;Samples;Min_cycle;Max_cycle;Signal;HPM_P1;HPM_P2
2022/01/30 00:01:52;;;;;;;7.70;4.58;;;;;;;0.23;57.84;99706.91;1804039;79;21001;-69
2022/01/30 00:04:18;;;;;;;6.45;3.98;;;;;;;0.28;57.91;99705.46;1804060;79;21072;-69
2022/01/30 00:06:45;;;;;;;8.13;3.62;;;;;;;0.30;57.91;99695.56;1804411;79;21021;-70
2022/01/30 00:09:22;;;;;;;10.38;4.47;;;;;;;0.31;57.93;99688.77;1804082;79;20982;-70
2022/01/30 00:11:50;;;;;;;8.65;3.98;;;;;;;0.31;57.99;99694.53;1803240;79;20950;-70
2022/01/30 00:14:16;;;;;;;7.55;3.80;;;;;;;0.31;58.10;99680.89;1804117;79;21437;-69
2022/01/30 00:16:42;;;;;;;8.78;4.03;;;;;;;0.32;58.06;99667.25;1803968;79;20961;-70
2022/01/30 00:19:20;;;;;;;8.43;4.42;;;;;;;0.33;58.15;99659.17;1804199;79;21524;-70
2022/01/30 00:21:46;;;;;;;8.90;4.58;;;;;;;0.34;58.20;99654.20;1803947;79;21127;-69
2022/01/30 00:24:15;;;;;;;6.90;3.75;;;;;;;0.35;58.22;99645.30;1804156;79;21033;-69
2022/01/30 00:26:39;;;;;;;9.33;4.72;;;;;;;0.37;58.25;99630.14;1803917;79;20993;-69
2022/01/30 00:29:06;;;;;;;10.82;4.40;;;;;;;0.37;58.29;99622.27;1803866;79;21021;-69
2022/01/30 00:31:34;;;;;;;9.60;4.55;;;;;;;0.42;58.36;99616.36;1804458;79;20962;-68
2022/01/30 00:34:02;;;;;;;8.43;4.03;;;;;;;0.44;58.35;99613.81;1804216;79;21557;-69
2022/01/30 00:36:31;;;;;;;9.60;4.28;;;;;;;0.46;58.37;99601.77;1804045;79;21002;-68
2022/01/30 00:39:00;;;;;;;8.68;5.00;;;;;;;0.48;58.35;99593.17;1804134;79;21051;-69
2022/01/30 00:41:26;;;;;;;9.45;4.50;;;;;;;0.47;58.38;99587.64;1804416;79;21025;-68
2022/01/30 00:43:53;;;;;;;8.63;4.67;;;;;;;0.49;58.42;99568.50;1804044;79;21044;-69
2022/01/30 00:46:19;;;;;;;8.35;4.70;;;;;;;0.51;58.47;99569.10;1804178;79;21048;-69
2022/01/30 00:48:46;;;;;;;8.73;4.20;;;;;;;0.52;58.52;99556.77;1804220;79;21060;-68
2022/01/30 00:51:16;;;;;;;9.50;4.67;;;;;;;0.52;58.56;99551.00;1804437;79;21025;-69
2022/01/30 00:53:44;;;;;;;9.78;5.10;;;;;;;0.49;58.56;99544.86;1804122;79;20990;-69
2022/01/30 00:56:11;;;;;;;9.80;5.00;;;;;;;0.50;58.66;99541.23;1804267;79;21439;-69
2022/01/30 00:58:38;;;;;;;9.23;4.30;;;;;;;0.47;58.66;99529.84;1803159;79;21085;-69
2022/01/30 01:01:04;;;;;;;7.75;4.70;;;;;;;0.46;58.70;99521.16;1800570;79;20962;-69
2022/01/30 01:03:32;;;;;;;10.10;4.70;;;;;;;0.46;58.73;99509.81;1800458;79;21054;-70
2022/01/30 01:05:59;;;;;;;11.43;4.22;;;;;;;0.46;58.79;99501.94;1800441;79;21041;-69
2022/01/30 01:08:46;;;;;;;7.78;4.47;;;;;;;0.48;58.86;99497.80;1800972;78;20988;-68
2022/01/30 01:11:13;;;;;;;8.73;4.47;;;;;;;0.50;58.86;99486.57;1796366;78;22000;-69
2022/01/30 01:24:28;;;;;;;6.95;3.87;;;;;;;0.54;58.78;99446.50;1799570;79;21784;-69
2022/01/30 01:26:54;;;;;;;8.33;4.10;;;;;;;0.57;58.73;99428.98;1799403;79;20970;-69
2022/01/30 01:29:21;;;;;;;7.22;3.20;;;;;;;0.59;58.75;99424.81;1800556;79;21035;-69
2022/01/30 01:31:47;;;;;;;8.55;4.12;;;;;;;0.58;58.61;99422.70;1800090;79;20967;-70
2022/01/30 01:34:33;;;;;;;8.23;3.85;;;;;;;0.58;58.59;99399.05;1772216;81;20993;-70
2022/01/30 01:36:58;;;;;;;7.40;4.30;;;;;;;0.57;58.38;99396.14;1772286;81;21231;-69
2022/01/30 01:39:25;;;;;;;8.90;3.87;;;;;;;0.57;58.45;99394.83;1772252;81;21083;-70
2022/01/30 01:41:51;;;;;;;8.28;3.67;;;;;;;0.60;58.43;99379.94;1772296;81;21087;-70
2022/01/30 01:44:23;;;;;;;7.92;3.87;;;;;;;0.58;58.39;99371.46;1772406;81;21009;-70
2022/01/30 01:46:50;;;;;;;6.70;3.35;;;;;;;0.59;58.31;99364.38;1772777;81;20994;-70
2022/01/30 01:49:23;;;;;;;7.58;3.83;;;;;;;0.60;58.21;99351.03;1772517;81;21487;-70
2022/01/30 01:52:03;;;;;;;6.90;3.37;;;;;;;0.61;58.09;99361.03;1771962;81;21544;-70
2022/01/30 01:54:19;;;;;;;5.37;3.05;;;;;;;0.62;58.04;99354.22;1768459;81;23938;-70
2022/01/30 01:56:45;;;;;;;6.25;3.30;;;;;;;0.65;57.84;99345.90;1772275;81;20978;-70
2022/01/30 01:59:17;;;;;;;6.00;3.42;;;;;;;0.65;57.57;99338.02;1771097;81;21551;-69
2022/01/30 02:01:53;;;;;;;6.62;2.80;;;;;;;0.65;57.54;99342.48;1768184;80;21810;-69
2022/01/30 02:04:20;;;;;;;8.05;3.47;;;;;;;0.67;57.55;99343.06;1772309;81;21041;-70
2022/01/30 02:06:49;;;;;;;6.05;3.02;;;;;;;0.69;57.54;99336.58;1745036;81;21018;-69
2022/01/30 02:09:16;;;;;;;6.40;3.15;;;;;;;0.72;57.37;99334.50;1772355;81;21072;-70
2022/01/30 02:11:46;;;;;;;6.05;2.90;;;;;;;0.70;57.41;99334.74;1772507;81;20949;-69
2022/01/30 02:14:27;;;;;;;5.17;2.92;;;;;;;0.71;57.13;99336.34;1772329;81;21559;-68
2022/01/30 02:27:35;;;;;;;7.42;3.37;;;;;;;0.75;57.08;99314.35;1800515;79;21184;-69
2022/01/30 02:30:02;;;;;;;6.70;3.22;;;;;;;0.73;56.87;99305.91;1800211;79;21529;-70
2022/01/30 02:32:30;;;;;;;5.58;2.77;;;;;;;0.74;56.97;99300.93;1802987;79;20978;-70
2022/01/30 02:34:56;;;;;;;5.35;2.62;;;;;;;0.76;56.90;99300.17;1804170;79;21024;-69
2022/01/30 02:37:23;;;;;;;7.28;3.10;;;;;;;0.77;57.38;99285.52;1804497;79;21001;-70
2022/01/30 02:39:50;;;;;;;5.97;2.60;;;;;;;0.78;57.42;99265.28;1803799;79;21126;-70
2022/01/30 02:42:21;;;;;;;6.62;2.92;;;;;;;0.78;57.87;99260.03;1804136;79;21092;-69
2022/01/30 02:44:55;;;;;;;5.40;2.50;;;;;;;0.72;58.99;99248.58;1803783;79;21005;-71
2022/01/30 02:48:30;;;;;;;4.87;2.27;;;;;;;0.66;59.43;99247.67;1775036;79;21079;-70
2022/01/30 02:50:12;;;;;;;6.67;2.67;;;;;;;0.62;59.84;99233.35;1789031;79;21076;-70
2022/01/30 02:52:40;;;;;;;4.95;2.75;;;;;;;0.57;61.14;99214.84;1804307;79;21044;-70
2022/01/30 02:55:09;;;;;;;7.12;2.83;;;;;;;0.55;61.70;99213.47;1804144;79;21005;-69
2022/01/30 02:57:35;;;;;;;6.22;2.72;;;;;;;0.50;62.06;99207.58;1804287;79;21064;-70
2022/01/30 03:00:05;;;;;;;6.90;2.90;;;;;;;0.43;63.06;99187.97;1804188;79;21562;-70
2022/01/30 03:02:32;;;;;;;5.05;2.22;;;;;;;0.37;63.72;99186.23;1804135;79;20954;-70
2022/01/30 03:04:58;;;;;;;6.58;2.72;;;;;;;0.32;65.02;99178.73;1803952;79;21040;-70
2022/01/30 03:07:25;;;;;;;5.08;2.55;;;;;;;0.26;68.26;99167.29;1804069;79;21006;-69
2022/01/30 03:09:56;;;;;;;6.03;2.72;;;;;;;0.20;69.51;99172.94;1803835;79;21077;-69
2022/01/30 03:12:23;;;;;;;4.85;2.70;;;;;;;0.18;70.40;99150.03;1804328;79;20997;-69
2022/01/30 03:14:49;;;;;;;5.42;2.65;;;;;;;0.13;71.63;99144.66;1803948;79;21567;-70
2022/01/30 03:17:16;;;;;;;5.42;2.90;;;;;;;0.12;72.06;99132.55;1804097;79;22083;-69
2022/01/30 03:19:43;;;;;;;6.22;3.33;;;;;;;0.11;72.11;99127.02;1803737;79;21001;-71
2022/01/30 03:22:11;;;;;;;6.25;3.10;;;;;;;0.10;72.15;99108.84;1804275;79;21081;-70
2022/01/30 03:24:38;;;;;;;7.17;2.83;;;;;;;0.10;72.16;99113.61;1803902;79;21001;-70
2022/01/30 03:27:13;;;;;;;7.25;3.00;;;;;;;0.11;72.26;99104.70;1803278;79;21475;-70
2022/01/30 03:29:50;;;;;;;4.37;2.80;;;;;;;0.10;72.35;99099.16;1803699;79;21485;-70
2022/01/30 03:32:13;;;;;;;5.33;3.00;;;;;;;0.11;72.42;99091.57;1803924;79;20981;-70
2022/01/30 03:34:40;;;;;;;5.87;2.80;;;;;;;0.11;72.47;99080.27;1803898;79;21044;-70
2022/01/30 03:37:07;;;;;;;6.05;2.90;;;;;;;0.11;72.48;99057.44;1804159;79;21025;-69
2022/01/30 03:39:34;;;;;;;6.42;2.72;;;;;;;0.15;72.41;99063.83;1803798;79;21602;-70
2022/01/30 03:42:00;;;;;;;4.97;2.33;;;;;;;0.15;72.23;99053.85;1804175;79;21753;-70
2022/01/30 03:44:27;;;;;;;7.72;3.25;;;;;;;0.16;72.12;99052.30;1801104;79;21030;-70
2022/01/30 03:46:53;;;;;;;4.60;2.65;;;;;;;0.18;71.93;99047.63;1800406;79;21442;-71
2022/01/30 03:49:20;;;;;;;5.22;2.80;;;;;;;0.19;71.65;99043.17;1799038;79;21521;-70
2022/01/30 03:51:48;;;;;;;5.92;2.52;;;;;;;0.21;71.47;99035.88;1800261;79;21033;-69
2022/01/30 03:54:22;;;;;;;4.20;2.50;;;;;;;0.23;71.40;99030.70;1799471;78;21504;-70
2022/01/30 03:56:48;;;;;;;5.00;2.37;;;;;;;0.26;71.28;99022.86;1757843;81;21533;-69
2022/01/30 03:59:15;;;;;;;5.25;2.83;;;;;;;0.27;71.36;99011.87;1765397;81;21545;-70
2022/01/30 04:01:42;;;;;;;5.37;2.70;;;;;;;0.25;71.42;98995.53;1764981;81;20990;-70
2022/01/30 04:04:09;;;;;;;4.72;2.70;;;;;;;0.24;71.63;98997.36;1765273;81;21006;-70
2022/01/30 04:06:36;;;;;;;5.72;2.87;;;;;;;0.20;72.08;98987.03;1764940;81;21995;-70
2022/01/30 04:09:05;;;;;;;5.10;2.62;;;;;;;0.13;73.09;98977.95;1760167;81;20982;-71
2022/01/30 04:11:38;;;;;;;5.50;2.67;;;;;;;0.04;74.06;98974.58;1760522;81;21026;-70
2022/01/30 04:14:08;;;;;;;5.97;2.90;;;;;;;-0.01;75.64;98979.17;1756606;81;21073;-70
2022/01/30 04:16:46;;;;;;;4.92;2.70;;;;;;;-0.01;76.62;98958.17;1697973;84;20966;-69
2022/01/30 04:19:23;;;;;;;5.10;2.58;;;;;;;-0.01;76.96;98955.55;1760485;81;21484;-70
2022/01/30 04:22:07;;;;;;;4.72;2.75;;;;;;;-0.04;77.63;98950.75;1764355;81;21607;-70
2022/01/30 04:24:52;;;;;;;6.28;2.67;;;;;;;-0.05;77.85;98945.23;1763878;81;21529;-70
2022/01/30 04:27:20;;;;;;;4.67;2.70;;;;;;;-0.07;78.23;98942.02;1758225;81;21128;-70
2022/01/30 04:30:09;;;;;;;5.87;2.60;;;;;;;-0.06;78.44;98935.77;1767655;81;21065;-70
2022/01/30 04:32:46;;;;;;;5.65;2.60;;;;;;;-0.06;78.56;98918.19;1763336;81;21666;-70
2022/01/30 04:35:27;;;;;;;6.17;3.00;;;;;;;-0.05;78.76;98922.92;1753568;81;21458;-69
2022/01/30 04:38:21;;;;;;;4.92;2.85;;;;;;;-0.08;78.88;98916.30;1763403;81;21033;-69
2022/01/30 04:57:51;;;;;;;6.72;3.30;;;;;;;-0.26;80.42;98863.42;1762619;80;21098;-71
2022/01/30 05:00:53;;;;;;;5.42;2.90;;;;;;;-0.31;80.48;98850.69;1763661;81;21132;-69
2022/01/30 05:06:14;;;;;;;6.65;3.30;;;;;;;-0.36;80.54;98841.38;1764419;81;21001;-70
2022/01/30 05:08:59;;;;;;;8.95;3.55;;;;;;;-0.37;80.56;98850.28;1761690;81;21058;-70
2022/01/30 05:11:31;;;;;;;7.03;3.75;;;;;;;-0.35;80.62;98843.79;1781595;79;21422;-69
2022/01/30 05:14:20;;;;;;;9.88;4.92;;;;;;;-0.34;80.59;98840.13;1800560;79;21597;-70
2022/01/30 05:16:53;;;;;;;6.85;4.20;;;;;;;-0.33;80.37;98829.12;1789337;79;20943;-70
2022/01/30 05:19:28;;;;;;;6.55;3.55;;;;;;;-0.33;80.42;98822.08;1795752;79;21077;-70
2022/01/30 05:22:08;;;;;;;6.28;4.10;;;;;;;-0.33;80.22;98816.83;1799240;79;21006;-70
2022/01/30 05:24:40;;;;;;;6.85;4.00;;;;;;;-0.34;80.35;98803.41;1799460;79;20999;-70
2022/01/30 05:27:11;;;;;;;7.42;3.95;;;;;;;-0.35;80.42;98795.27;1797140;79;21126;-70
2022/01/30 05:29:41;;;;;;;7.75;3.92;;;;;;;-0.35;80.21;98778.21;1802289;78;20984;-70
2022/01/30 05:32:22;;;;;;;6.05;3.55;;;;;;;-0.35;80.31;98788.70;1791416;80;20961;-70
2022/01/30 05:34:51;;;;;;;6.42;4.20;;;;;;;-0.29;80.19;98754.20;1755100;80;21060;-70
2022/01/30 05:37:20;;;;;;;10.35;4.25;;;;;;;-0.31;80.61;98762.28;1803086;79;20980;-70
2022/01/30 05:40:07;;;;;;;8.15;3.72;;;;;;;-0.31;80.87;98754.94;1795734;80;21153;-70
2022/01/30 05:42:48;;;;;;;7.60;4.30;;;;;;;-0.32;80.87;98762.53;1803074;79;20976;-70
2022/01/30 05:48:15;;;;;;;7.58;4.17;;;;;;;-0.35;80.61;98759.84;1732664;82;21541;-69
2022/01/30 05:50:56;;;;;;;8.23;3.85;;;;;;;-0.37;80.43;98759.27;1731665;81;21069;-69
2022/01/30 05:53:31;;;;;;;6.47;4.03;;;;;;;-0.47;83.19;98751.18;1765933;80;21107;-70
2022/01/30 05:56:11;;;;;;;9.38;4.20;;;;;;;-0.48;84.04;98735.97;1803109;79;21539;-70
2022/01/30 05:58:37;;;;;;;7.65;4.30;;;;;;;-0.45;83.15;98739.96;1795743;80;21039;-71
2022/01/30 06:01:07;;;;;;;6.92;3.98;;;;;;;-0.41;82.95;98742.40;1799801;79;21083;-70
2022/01/30 06:03:34;;;;;;;6.83;4.10;;;;;;;-0.39;82.85;98735.63;1796080;80;20957;-70
2022/01/30 06:06:01;;;;;;;6.35;4.12;;;;;;;-0.40;82.49;98732.70;1795561;80;21971;-70
2022/01/30 06:10:56;;;;;;;6.40;3.65;;;;;;;-0.38;82.40;98730.14;1755646;80;21047;-70
2022/01/30 06:13:23;;;;;;;7.65;4.78;;;;;;;-0.34;82.43;98716.84;1796162;80;20973;-70
2022/01/30 06:15:50;;;;;;;7.15;4.03;;;;;;;-0.31;82.35;98722.94;1774424;79;21047;-70
2022/01/30 06:18:18;;;;;;;6.28;3.80;;;;;;;-0.28;82.30;98716.44;1796328;80;21492;-70
2022/01/30 06:20:52;;;;;;;6.62;4.05;;;;;;;-0.26;82.19;98726.20;1790978;80;20957;-70
2022/01/30 06:23:40;;;;;;;7.80;4.03;;;;;;;-0.24;82.21;98705.23;1795800;80;21005;-70
2022/01/30 06:26:29;;;;;;;6.05;3.87;;;;;;;-0.20;82.10;98709.50;1787607;80;21446;-71
2022/01/30 06:29:14;;;;;;;8.48;3.83;;;;;;;-0.15;82.11;98699.13;1769003;81;21069;-71
2022/01/30 06:32:03;;;;;;;5.40;3.60;;;;;;;-0.13;82.00;98677.88;1736949;82;21127;-71
2022/01/30 06:34:49;;;;;;;8.20;4.20;;;;;;;-0.13;81.88;98691.83;1768450;81;21073;-70
2022/01/30 06:37:29;;;;;;;7.70;4.15;;;;;;;-0.15;81.77;98688.63;1804348;79;21523;-71
2022/01/30 06:40:14;;;;;;;6.55;4.10;;;;;;;-0.13;81.83;98684.45;1775374;79;21024;-71
2022/01/30 06:42:47;;;;;;;7.35;4.33;;;;;;;-0.09;81.93;98664.61;1709929;81;21001;-71
2022/01/30 06:45:36;;;;;;;7.78;4.33;;;;;;;-0.02;81.96;98664.73;1664155;86;21152;-70
2022/01/30 06:48:22;;;;;;;6.47;3.50;;;;;;;0.02;81.70;98682.64;1740796;81;21414;-70
2022/01/30 06:50:54;;;;;;;5.42;3.65;;;;;;;-0.02;81.34;98680.48;1764306;81;21108;-70
2022/01/30 06:53:24;;;;;;;7.60;3.92;;;;;;;-0.02;81.57;98688.88;1776276;79;21064;-70
2022/01/30 06:56:06;;;;;;;;;;;;;;;-0.02;81.83;98668.67;1799176;79;20937;-70
2022/01/30 06:58:55;;;;;;;7.47;4.30;;;;;;;0.03;82.14;98658.77;1824530;77;21765;-71
2022/01/30 07:01:37;;;;;;;7.30;4.05;;;;;;;0.08;82.22;98660.19;1804098;79;21472;-71
2022/01/30 07:04:07;;;;;;;6.62;3.65;;;;;;;0.14;82.26;98657.15;1804035;79;20966;-70
2022/01/30 07:06:36;;;;;;;5.35;3.42;;;;;;;0.18;82.23;98641.99;1800602;78;20946;-71
2022/01/30 07:09:02;;;;;;;7.33;3.95;;;;;;;0.22;82.16;98632.61;1804165;79;21017;-70
2022/01/30 07:11:29;;;;;;;5.20;3.45;;;;;;;0.26;82.19;98619.80;1804333;79;21055;-70
2022/01/30 07:13:55;;;;;;;6.75;3.55;;;;;;;0.27;84.21;98625.87;1803785;79;21044;-70
2022/01/30 07:16:21;;;;;;;6.00;3.20;;;;;;;0.31;84.46;98616.48;1804087;79;20966;-71
2022/01/30 07:18:48;;;;;;;4.83;2.90;;;;;;;0.35;83.01;98618.38;1804024;79;21485;-71
2022/01/30 07:21:15;;;;;;;6.12;3.27;;;;;;;0.40;82.43;98609.81;1804052;79;21191;-71
2022/01/30 07:23:41;;;;;;;7.62;3.52;;;;;;;0.41;82.43;98608.24;1804164;79;21135;-71
2022/01/30 07:26:09;;;;;;;6.35;3.42;;;;;;;0.43;82.44;98604.08;1803989;79;20998;-71
2022/01/30 07:28:36;;;;;;;5.72;3.25;;;;;;;0.47;82.62;98596.00;1775030;79;21065;-70
2022/01/30 07:31:02;;;;;;;6.00;3.42;;;;;;;0.53;82.77;98589.79;1803840;79;20978;-71
2022/01/30 07:33:29;;;;;;;8.40;3.75;;;;;;;0.59;82.61;98587.52;1804124;79;21175;-70
2022/01/30 07:35:57;;;;;;;6.62;3.35;;;;;;;0.64;82.65;98581.02;1803967;79;21099;-71
2022/01/30 07:38:24;;;;;;;5.22;3.00;;;;;;;0.71;82.58;98586.10;1804113;79;21468;-71
2022/01/30 07:40:50;;;;;;;4.70;2.95;;;;;;;0.80;82.38;98582.56;1803679;79;20965;-71
2022/01/30 07:43:17;;;;;;;5.17;3.17;;;;;;;0.83;82.07;98569.73;1804237;79;21036;-70
2022/01/30 07:45:45;;;;;;;5.95;3.40;;;;;;;0.90;82.18;98579.55;1803648;79;21017;-70
2022/01/30 07:48:12;;;;;;;5.87;3.55;;;;;;;0.98;82.12;98570.44;1804337;79;21146;-70
2022/01/30 07:50:39;;;;;;;6.05;3.30;;;;;;;1.05;82.09;98571.05;1803827;79;20997;-71
2022/01/30 07:53:05;;;;;;;4.87;3.02;;;;;;;1.11;81.97;98573.23;1804070;79;21033;-70
2022/01/30 07:55:33;;;;;;;5.45;3.30;;;;;;;1.10;80.88;98572.44;1802808;78;21107;-71
2022/01/30 07:57:59;;;;;;;5.83;3.35;;;;;;;1.11;80.61;98567.45;1722740;81;21675;-70
2022/01/30 08:00:25;;;;;;;5.72;3.10;;;;;;;1.23;80.89;98545.52;1738051;82;21484;-71
2022/01/30 08:02:52;;;;;;;6.55;3.72;;;;;;;1.34;80.71;98538.01;1738176;82;20990;-71
2022/01/30 08:05:19;;;;;;;6.62;3.62;;;;;;;1.39;79.80;98556.48;1738080;82;20998;-71
2022/01/30 08:07:46;;;;;;;5.40;3.42;;;;;;;1.41;79.34;98547.81;1772282;80;20993;-71
2022/01/30 08:10:12;;;;;;;5.92;3.52;;;;;;;1.45;79.49;98542.36;1772750;81;21096;-70
2022/01/30 08:12:41;;;;;;;5.95;3.33;;;;;;;1.50;78.59;98545.55;1772340;81;21128;-71
2022/01/30 08:15:09;;;;;;;5.42;3.33;;;;;;;1.55;78.92;98537.20;1772199;81;21025;-71
2022/01/30 08:17:37;;;;;;;5.72;3.30;;;;;;;1.61;79.00;98536.22;1772490;81;20957;-71
2022/01/30 08:20:06;;;;;;;5.95;4.15;;;;;;;1.63;78.55;98531.48;1772473;81;21030;-72
2022/01/30 08:22:45;;;;;;;6.30;3.60;;;;;;;1.67;78.63;98523.88;1772268;81;21021;-71
2022/01/30 08:25:11;;;;;;;5.75;3.40;;;;;;;1.79;78.81;98525.06;1774151;79;21107;-71
2022/01/30 08:27:39;;;;;;;6.22;3.70;;;;;;;1.90;78.97;98510.94;1800211;79;21002;-72
2022/01/30 08:30:07;;;;;;;5.72;3.25;;;;;;;1.95;78.29;98537.32;1800469;79;21439;-71
2022/01/30 08:32:47;;;;;;;6.30;3.50;;;;;;;1.92;78.07;98533.08;1800353;79;20999;-72
2022/01/30 08:35:14;;;;;;;4.92;3.08;;;;;;;1.90;78.10;98516.20;1800292;79;21446;-72
2022/01/30 08:37:41;;;;;;;6.17;3.50;;;;;;;1.90;78.15;98506.20;1800185;79;21080;-71
2022/01/30 08:40:13;;;;;;;5.10;3.08;;;;;;;1.94;78.10;98496.25;1800162;79;21517;-71
2022/01/30 08:42:40;;;;;;;5.75;3.20;;;;;;;2.04;78.32;98502.91;1800375;79;20978;-69
2022/01/30 08:45:12;;;;;;;5.60;3.47;;;;;;;2.15;77.80;98491.92;1800505;79;21086;-70
2022/01/30 08:47:37;;;;;;;4.97;3.45;;;;;;;2.29;77.91;98490.96;1800001;79;21101;-71
2022/01/30 08:50:04;;;;;;;5.22;3.30;;;;;;;2.47;78.28;98484.47;1800307;79;21314;-71
2022/01/30 08:52:31;;;;;;;5.17;3.20;;;;;;;2.65;77.87;98481.42;1800896;79;21446;-72
2022/01/30 08:54:58;;;;;;;5.45;3.08;;;;;;;2.78;77.66;98477.54;1800273;79;21007;-71
2022/01/30 08:57:25;;;;;;;6.42;3.27;;;;;;;2.92;77.40;98473.38;1800881;79;20939;-71
2022/01/30 08:59:54;;;;;;;4.95;3.22;;;;;;;3.04;76.62;98472.64;1800408;79;20979;-70
2022/01/30 09:02:22;;;;;;;5.62;3.50;;;;;;;3.21;76.41;98470.31;1800834;79;21553;-69
2022/01/30 09:04:49;;;;;;;5.80;3.35;;;;;;;3.32;75.58;98471.13;1800211;79;20979;-70
2022/01/30 09:07:17;;;;;;;5.75;3.47;;;;;;;3.37;74.58;98469.30;1800426;79;21065;-70
2022/01/30 09:09:44;;;;;;;5.60;3.30;;;;;;;3.41;74.01;98457.16;1800490;79;20939;-71
2022/01/30 09:12:13;;;;;;;5.05;2.92;;;;;;;3.52;73.84;98457.46;1800523;79;20915;-72
2022/01/30 09:15:48;;;;;;;5.00;3.17;;;;;;;3.66;73.61;98454.31;1800205;79;21087;-72
2022/01/30 09:18:17;;;;;;;8.10;3.40;;;;;;;3.80;73.46;98461.96;1800477;79;21418;-71
2022/01/30 09:20:45;;;;;;;5.05;3.50;;;;;;;3.98;71.98;98446.92;1800369;79;21027;-71
2022/01/30 09:23:13;;;;;;;4.60;3.08;;;;;;;4.18;71.50;98442.14;1802672;79;20962;-70
2022/01/30 09:25:40;;;;;;;6.35;2.80;;;;;;;4.35;70.06;98448.98;1828350;77;21008;-70
2022/01/30 09:28:07;;;;;;;5.75;3.47;;;;;;;4.41;69.45;98451.88;1803977;79;21517;-70
2022/01/30 09:30:34;;;;;;;5.30;3.52;;;;;;;4.49;69.45;98435.99;1803977;79;20937;-71
2022/01/30 09:33:02;;;;;;;5.83;3.50;;;;;;;4.63;68.87;98435.14;1804126;79;21496;-71
2022/01/30 09:35:29;;;;;;;6.78;3.33;;;;;;;4.77;68.45;98451.75;1804110;79;21036;-71
2022/01/30 09:37:55;;;;;;;5.28;3.80;;;;;;;4.84;68.28;98433.77;1804357;79;20946;-70
2022/01/30 09:40:21;;;;;;;4.35;2.75;;;;;;;4.92;67.71;98439.80;1804213;79;21482;-70
2022/01/30 09:42:50;;;;;;;5.95;3.02;;;;;;;4.90;67.29;98444.56;1803894;79;21049;-69
2022/01/30 09:45:20;;;;;;;6.05;3.85;;;;;;;4.86;67.13;98444.31;1804183;79;21860;-69
2022/01/30 09:47:47;;;;;;;5.45;3.47;;;;;;;4.86;67.31;98435.05;1804251;79;20961;-69
2022/01/30 09:50:16;;;;;;;6.33;3.95;;;;;;;4.86;67.00;98441.66;1804103;79;21104;-70
2022/01/30 09:52:42;;;;;;;5.80;4.00;;;;;;;4.93;67.43;98435.55;1803866;79;21306;-72
2022/01/30 09:55:08;;;;;;;6.55;3.85;;;;;;;5.03;67.38;98442.64;1803955;79;21058;-70
2022/01/30 09:57:36;;;;;;;6.12;3.80;;;;;;;5.20;67.36;98430.92;1804310;79;21021;-70
2022/01/30 10:00:07;;;;;;;6.28;3.95;;;;;;;5.28;67.02;98448.34;1803879;79;21542;-70
2022/01/30 10:02:35;;;;;;;7.15;4.58;;;;;;;5.35;66.76;98443.53;1804306;79;21084;-69
2022/01/30 10:05:02;;;;;;;5.97;4.00;;;;;;;5.44;66.83;98442.44;1804086;79;21120;-70
2022/01/30 10:07:43;;;;;;;7.50;4.62;;;;;;;5.54;66.70;98447.66;1800940;79;21053;-70
2022/01/30 10:10:13;;;;;;;7.10;2.55;;;;;;;5.60;66.47;98443.91;1804811;79;21032;-71
2022/01/30 10:13:05;;;;;;;6.37;4.15;;;;;;;5.62;65.89;98438.33;1804111;79;20996;-71
2022/01/30 10:15:56;;;;;;;5.33;3.10;;;;;;;5.58;66.10;98437.30;1804143;79;21444;-71
2022/01/30 10:18:32;;;;;;;5.75;3.62;;;;;;;5.55;65.65;98443.94;1804144;79;21616;-70
2022/01/30 10:20:54;;;;;;;6.25;3.98;;;;;;;5.53;65.98;98437.36;1804033;78;21056;-69
2022/01/30 10:23:33;;;;;;;7.60;4.40;;;;;;;5.55;65.96;98436.53;1803885;79;21037;-70
2022/01/30 10:26:01;;;;;;;6.40;3.80;;;;;;;5.56;65.98;98430.97;1803867;79;21168;-69
2022/01/30 10:28:31;;;;;;;5.97;3.47;;;;;;;5.57;65.96;98427.79;1804074;79;20966;-69
2022/01/30 10:31:04;;;;;;;7.20;3.75;;;;;;;5.56;65.98;98427.00;1803876;79;21102;-70
2022/01/30 10:33:50;;;;;;;7.08;3.65;;;;;;;5.57;66.11;98417.20;1776571;79;20949;-69
2022/01/30 10:36:25;;;;;;;7.70;4.08;;;;;;;5.55;65.99;98413.48;1804039;79;21068;-69
2022/01/30 10:39:12;;;;;;;7.90;4.85;;;;;;;5.51;66.06;98411.14;1803841;79;21060;-70
2022/01/30 10:41:36;;;;;;;6.20;3.80;;;;;;;5.47;66.24;98408.00;1803310;79;21009;-70
2022/01/30 10:44:06;;;;;;;7.40;4.10;;;;;;;5.48;66.40;98397.12;1804349;79;21528;-70
2022/01/30 10:46:46;;;;;;;6.12;3.35;;;;;;;5.48;66.29;98401.63;1803810;79;20969;-70
2022/01/30 10:49:21;;;;;;;5.65;3.45;;;;;;;5.46;66.37;98396.59;1804267;79;21077;-69
2022/01/30 10:51:59;;;;;;;7.03;4.12;;;;;;;5.40;66.29;98403.81;1803949;79;21029;-70
2022/01/30 10:54:33;;;;;;;7.15;3.65;;;;;;;5.36;66.45;98400.14;1804086;79;20981;-69
2022/01/30 10:57:06;;;;;;;6.00;3.80;;;;;;;5.37;66.58;98391.13;1803970;79;21839;-70
2022/01/30 10:59:33;;;;;;;5.97;3.17;;;;;;;5.41;66.69;98387.38;1804214;79;21051;-70
2022/01/30 11:02:19;;;;;;;6.35;3.02;;;;;;;5.48;66.44;98387.07;1803916;79;21540;-71
2022/01/30 11:04:48;;;;;;;4.72;2.75;;;;;;;5.55;66.54;98382.25;1799834;79;20943;-71
2022/01/30 11:07:20;;;;;;;6.40;2.98;;;;;;;5.60;66.23;98383.55;1800494;79;21178;-70
2022/01/30 11:10:07;;;;;;;8.75;4.08;;;;;;;5.60;66.05;98371.63;1800374;79;21087;-72
2022/01/30 11:12:41;;;;;;;5.53;3.62;;;;;;;5.59;65.96;98370.02;1799547;79;21438;-71
2022/01/30 11:15:15;;;;;;;5.97;3.10;;;;;;;5.64;66.02;98367.34;1799656;79;21012;-71
2022/01/30 11:17:27;;;;;;;7.22;3.17;;;;;;;5.70;65.93;98371.53;1791093;80;21047;-72
2022/01/30 11:19:56;;;;;;;7.25;3.52;;;;;;;5.72;65.61;98369.92;1793264;80;21000;-73
2022/01/30 11:22:23;;;;;;;5.60;2.87;;;;;;;5.76;65.66;98361.16;1765562;80;21547;-72
2022/01/30 11:25:01;;;;;;;7.78;3.60;;;;;;;5.81;65.27;98365.07;1764284;79;21046;-72
2022/01/30 11:27:28;;;;;;;5.50;2.90;;;;;;;5.87;65.48;98358.66;1764894;81;21058;-72
2022/01/30 11:29:54;;;;;;;7.47;2.98;;;;;;;5.99;65.24;98357.00;1764144;80;20935;-72
2022/01/30 11:32:22;;;;;;;4.45;2.42;;;;;;;6.10;64.83;98359.00;1764808;81;20979;-71
2022/01/30 11:34:49;;;;;;;5.53;2.75;;;;;;;6.20;64.44;98352.27;1765219;81;21105;-72
2022/01/30 11:37:17;;;;;;;6.53;2.90;;;;;;;6.28;64.40;98348.19;1764725;81;21061;-72
2022/01/30 11:39:52;;;;;;;7.30;2.72;;;;;;;6.34;64.05;98347.85;1765259;81;21046;-72
2022/01/30 11:42:27;;;;;;;8.28;3.12;;;;;;;6.36;63.71;98340.17;1764880;81;21054;-73
2022/01/30 11:45:14;;;;;;;6.10;2.50;;;;;;;6.39;63.75;98340.93;1765501;81;21163;-73
2022/01/30 11:47:49;;;;;;;6.45;2.92;;;;;;;6.36;63.10;98341.50;1764691;81;21143;-74
2022/01/30 11:50:21;;;;;;;5.60;2.83;;;;;;;6.25;63.15;98344.78;1765808;81;20998;-73
2022/01/30 11:52:56;;;;;;;6.78;2.62;;;;;;;6.23;63.28;98350.38;1763792;81;21101;-73
2022/01/30 11:56:00;;;;;;;5.30;2.60;;;;;;;6.23;63.17;98341.64;1765310;81;21579;-73
2022/01/30 11:58:38;;;;;;;6.95;2.50;;;;;;;6.21;63.31;98341.91;1765034;81;21014;-73
2022/01/30 12:01:27;;;;;;;6.12;2.80;;;;;;;6.17;63.11;98346.20;1765189;81;21079;-73
2022/01/30 12:04:00;;;;;;;5.05;2.58;;;;;;;6.11;63.14;98342.02;1765411;81;21038;-74
2022/01/30 12:06:29;;;;;;;;;;;;;;;6.03;63.16;98334.70;1768550;81;20958;-74
2022/01/30 12:08:59;;;;;;;7.25;3.10;;;;;;;5.97;63.34;98335.81;1765798;81;20194;-74
2022/01/30 12:11:40;;;;;;;7.12;3.33;;;;;;;5.95;63.54;98333.44;1765325;81;20958;-74
2022/01/30 12:14:12;;;;;;;4.05;2.50;;;;;;;5.98;63.68;98330.77;1764492;80;21743;-74
2022/01/30 12:16:45;;;;;;;7.12;3.10;;;;;;;6.02;63.58;98326.47;1765178;81;21542;-73
2022/01/30 12:19:13;;;;;;;6.28;2.77;;;;;;;6.08;63.42;98326.67;1767044;81;21502;-74
2022/01/30 12:21:40;;;;;;;6.12;2.35;;;;;;;6.17;63.43;98334.81;1769442;81;21046;-74
2022/01/30 12:24:31;;;;;;;6.28;2.92;;;;;;;6.27;62.99;98332.83;1769281;81;20919;-74
2022/01/30 12:27:02;;;;;;;4.35;2.50;;;;;;;6.36;62.76;98334.33;1769529;81;21842;-74
2022/01/30 12:29:46;;;;;;;5.37;2.45;;;;;;;6.46;62.41;98334.20;1769566;81;20959;-74
2022/01/30 12:32:27;;;;;;;4.83;2.45;;;;;;;6.52;62.16;98335.72;1769176;81;21010;-72
2022/01/30 12:35:02;;;;;;;5.95;2.70;;;;;;;6.52;61.35;98338.91;1769395;81;21029;-73
2022/01/30 12:37:35;;;;;;;7.22;2.90;;;;;;;6.45;61.41;98334.47;1771124;79;21553;-75
2022/01/30 12:40:19;;;;;;;6.40;2.93;;;;;;;6.40;61.64;98343.83;1772228;79;21074;-74
2022/01/30 12:42:46;;;;;;;6.12;2.80;;;;;;;6.38;61.64;98351.27;1753328;81;21386;-73
2022/01/30 12:45:14;;;;;;;5.75;2.67;;;;;;;6.36;61.51;98346.80;1776683;78;21124;-74
2022/01/30 12:47:53;;;;;;;7.87;2.85;;;;;;;6.37;61.51;98343.06;1769962;81;21081;-74
2022/01/30 12:50:20;;;;;;;6.12;2.40;;;;;;;6.38;61.37;98341.98;1784278;78;21139;-75